METAR Data
IDs: Format: Raw Decoded Include TAF

Data at: 1944 UTC 13 Nov 2019

KBWI 131854Z VRB05KT 10SM FEW060 FEW250 03/M11 A3038 RMK AO2 SLP290 T00281106
KBWI 131754Z VRB03KT 10SM FEW038 FEW055 SCT250 02/M12 A3040 RMK AO2 SLP296 T00221117 10028 21050 58009
KBWI 131654Z 35009KT 310V020 10SM FEW034 FEW055 FEW250 02/M11 A3041 RMK AO2 SLP300 T00221111
KBWI 131554Z COR 31008KT 290V360 10SM FEW032 FEW250 01/M11 A3043 RMK AO2 SLP304 T00111111
KBWI 131454Z COR 31010KT 10SM FEW032 00/M11 A3043 RMK AO2 SLP305 T00001106 51015
KBWI 131354Z 29010KT 10SM FEW028 M02/M11 A3042 RMK AO2 SLP301 T10171106
KBWI 131254Z 29008KT 10SM FEW028 M03/M10 A3040 RMK AO2 SLP296 T10281100
KBWI 131154Z 29006KT 10SM FEW028 M05/M11 A3038 RMK AO2 SLP290 T10501106 11022 21056 51019
KBWI 131054Z 29007KT 10SM CLR M04/M11 A3037 RMK AO2 SLP285 T10441111
KBWI 130954Z 30007KT 10SM CLR M04/M12 A3035 RMK AO2 SLP278 T10441117
KBWI 130854Z 30008KT 10SM CLR M04/M12 A3033 RMK AO2 SLP271 T10391122 53014
KBWI 130754Z 29005KT 10SM CLR M04/M13 A3031 RMK AO2 SLP264 T10391128
KBWI 130654Z 30008KT 10SM CLR M03/M14 A3030 RMK AO2 SLP261 T10281139
KBWI 130554Z 31005KT 10SM CLR M02/M13 A3029 RMK AO2 SLP257 T10221133 10017 21022 53021
KBWI 130454Z 35005KT 10SM FEW055 M02/M13 A3026 RMK AO2 SLP249 T10171133 401721017
KBWI 130354Z 33006KT 10SM FEW055 M01/M12 A3024 RMK AO2 SLP242 T10061117
KBWI 130254Z 33007KT 10SM FEW060 00/M11 A3023 RMK AO2 SLP235 T00001106 51033
KBWI 130154Z 33006KT 10SM FEW060 00/M07 A3020 RMK AO2 SLP227 T00001072
KBWI 130054Z 30011KT 10SM FEW060 SCT080 01/M06 A3017 RMK AO2 SLP215 T00061061
KBWI 122354Z 30011KT 10SM FEW055 BKN070 02/M04 A3013 RMK AO2 SLP202 VIRGA SW T00171044 10056 20017 53035
KBWI 122254Z 28014G19KT 10SM FEW055 BKN070 02/M07 A3009 RMK AO2 SLP191 T00221072
KBWI 122154Z 31012KT 10SM BKN055 BKN160 04/M07 A3005 RMK AO2 SLP176 VCSH SW-N T00391072
KBWI 122054Z 33012G19KT 10SM BKN065 BKN120 BKN160 04/M07 A3002 RMK AO2 SLP167 VIRGA SW-W AND N T00441067 53012
KBWI 121954Z 32010G19KT 10SM SCT055 SCT090 SCT120 BKN160 BKN250 05/M07 A3000 RMK AO2 SLP159 T00501067
KBWI 121854Z 32015G21KT 10SM FEW038 SCT055 BKN120 BKN250 04/M07 A2999 RMK AO2 SLP155 T00441067
KBWI 121754Z 32014G24KT 10SM FEW018 SCT035 BKN065 BKN160 05/M08 A2999 RMK AO2 SLP155 60000 T00501078 10106 20044 50009
KBWI 121654Z 32015G24KT 10SM SCT015 SCT033 BKN055 BKN160 05/M04 A2999 RMK AO2 PK WND 32026/1635 RAE07SNE07 SLP157 P0000 T00501044
KBWI 121608Z 33007KT 10SM FEW015 SCT033 BKN055 BKN160 04/00 A2999 RMK AO2 RAE07SNE07 P0000 T00440000
KBWI 121554Z 31008KT 10SM -RASN FEW015 BKN031 BKN055 BKN160 04/00 A3001 RMK AO2 PK WND 30028/1500 SNB50 SLP161 P0000 T00440000
KBWI 121550Z 31011G21KT 10SM -RASN FEW015 BKN031 BKN055 BKN160 04/M01 A3001 RMK AO2 PK WND 30028/1500 SNB50 P0000
KBWI 121454Z 31017G24KT 10SM -RA FEW013 BKN026 OVC060 06/00 A2996 RMK AO2 PK WND 29033/1356 RAE1355B50 SLP145 P0000 60000 T00610000 53045
KBWI 121448Z 32013G26KT 10SM FEW013 BKN026 OVC060 07/00 A2996 RMK AO2 PK WND 29033/1356 RAE1355 P0000
KBWI 121354Z 29015G21KT 10SM -RA FEW013 SCT023 BKN050 OVC160 07/02 A2991 RMK AO2 SLP130 P0000 T00720017
KBWI 121254Z 29011KT 10SM -RA SCT013 SCT024 BKN042 OVC160 08/04 A2987 RMK AO2 PK WND 28026/1159 RAE20B51 SLP114 P0000 T00830044
KBWI 121225Z 28013KT 10SM FEW013 SCT024 OVC042 09/04 A2985 RMK AO2 PK WND 28026/1159 RAE20 P0000 T00890044
KBWI 121154Z 27016G24KT 6SM -RA BR BKN015 BKN021 OVC055 11/09 A2983 RMK AO2 PRESRR SLP099 P0004 60008 70008 T01060089 10161 20106 53025
KBWI 121137Z 27008KT 7SM -RA SCT015 BKN021 OVC055 11/09 A2981 RMK AO2 P0003 T01110094
KBWI 121054Z 26005KT 9SM -RA FEW034 SCT055 OVC075 11/09 A2979 RMK AO2 SLP086 P0002 T01110094
KBWI 120954Z 24006KT 10SM -RA FEW060 OVC080 12/09 A2977 RMK AO2 SLP080 P0002 T01170089
KBWI 120854Z 23007KT 10SM -RA SCT060 BKN080 OVC110 14/07 A2975 RMK AO2 RAB34 SLP073 P0000 60000 T01390067 55002
KBWI 120754Z 22010KT 10SM SCT110 OVC140 16/05 A2974 RMK AO2 SLP069 T01560050